sensor_id;sensor_type;location;lat;lon;timestamp;temperature;humidity
15969;DHT22;8085;53.472;9.794;2022-11-20T00:00:40;0.70;99.90
15969;DHT22;8085;53.472;9.794;2022-11-20T00:03:07;0.70;99.90
15969;DHT22;8085;53.472;9.794;2022-11-20T00:05:35;0.70;99.90
15969;DHT22;8085;53.472;9.794;2022-11-20T00:08:02;0.70;99.90
15969;DHT22;8085;53.472;9.794;2022-11-20T00:10:29;0.70;99.90
15969;DHT22;8085;53.472;9.794;2022-11-20T00:12:57;0.70;99.90
15969;DHT22;8085;53.472;9.794;2022-11-20T00:15:24;0.70;99.90
15969;DHT22;8085;53.472;9.794;2022-11-20T00:17:51;0.70;99.90
15969;DHT22;8085;53.472;9.794;2022-11-20T00:20:18;0.70;99.90
15969;DHT22;8085;53.472;9.794;2022-11-20T00:22:46;0.80;99.90
15969;DHT22;8085;53.472;9.794;2022-11-20T00:25:13;0.80;99.90
15969;DHT22;8085;53.472;9.794;2022-11-20T00:27:40;0.80;99.90
15969;DHT22;8085;53.472;9.794;2022-11-20T00:30:08;0.80;99.90
15969;DHT22;8085;53.472;9.794;2022-11-20T00:32:35;0.80;99.90
15969;DHT22;8085;53.472;9.794;2022-11-20T00:35:02;0.80;99.90
15969;DHT22;8085;53.472;9.794;2022-11-20T00:37:29;0.80;99.90
15969;DHT22;8085;53.472;9.794;2022-11-20T00:39:57;0.80;99.90
15969;DHT22;8085;53.472;9.794;2022-11-20T00:42:24;0.80;99.90
15969;DHT22;8085;53.472;9.794;2022-11-20T00:44:51;0.80;99.90
15969;DHT22;8085;53.472;9.794;2022-11-20T00:47:17;0.80;99.90
15969;DHT22;8085;53.472;9.794;2022-11-20T00:49:44;0.80;99.90
15969;DHT22;8085;53.472;9.794;2022-11-20T00:52:11;0.70;99.90
15969;DHT22;8085;53.472;9.794;2022-11-20T00:54:38;0.70;99.90
15969;DHT22;8085;53.472;9.794;2022-11-20T00:57:06;0.70;99.90
15969;DHT22;8085;53.472;9.794;2022-11-20T00:59:33;0.70;99.90
15969;DHT22;8085;53.472;9.794;2022-11-20T01:02:00;0.70;99.90
15969;DHT22;8085;53.472;9.794;2022-11-20T01:04:26;0.70;99.90
15969;DHT22;8085;53.472;9.794;2022-11-20T01:06:53;0.70;99.90
15969;DHT22;8085;53.472;9.794;2022-11-20T01:09:20;0.70;99.90
15969;DHT22;8085;53.472;9.794;2022-11-20T01:11:47;0.70;99.90
15969;DHT22;8085;53.472;9.794;2022-11-20T01:14:17;0.60;99.90
15969;DHT22;8085;53.472;9.794;2022-11-20T01:16:46;0.60;99.90
15969;DHT22;8085;53.472;9.794;2022-11-20T01:19:15;0.60;99.90
15969;DHT22;8085;53.472;9.794;2022-11-20T01:21:43;0.60;99.90
15969;DHT22;8085;53.472;9.794;2022-11-20T01:24:13;0.60;99.90
15969;DHT22;8085;53.472;9.794;2022-11-20T01:26:42;0.60;99.90
15969;DHT22;8085;53.472;9.794;2022-11-20T01:29:13;0.60;99.90
15969;DHT22;8085;53.472;9.794;2022-11-20T01:31:41;0.60;99.90
15969;DHT22;8085;53.472;9.794;2022-11-20T01:34:10;0.60;99.90
15969;DHT22;8085;53.472;9.794;2022-11-20T01:36:38;0.60;99.90
15969;DHT22;8085;53.472;9.794;2022-11-20T01:39:07;0.60;99.90
15969;DHT22;8085;53.472;9.794;2022-11-20T01:41:36;0.60;99.90
15969;DHT22;8085;53.472;9.794;2022-11-20T01:44:48;0.60;99.90
15969;DHT22;8085;53.472;9.794;2022-11-20T01:47:20;0.60;99.90
15969;DHT22;8085;53.472;9.794;2022-11-20T01:49:50;0.60;99.90
15969;DHT22;8085;53.472;9.794;2022-11-20T01:52:21;0.60;99.90
15969;DHT22;8085;53.472;9.794;2022-11-20T01:54:51;0.60;99.90
15969;DHT22;8085;53.472;9.794;2022-11-20T01:57:21;0.60;99.90
15969;DHT22;8085;53.472;9.794;2022-11-20T01:59:53;0.60;99.90
15969;DHT22;8085;53.472;9.794;2022-11-20T02:02:23;0.60;99.90
15969;DHT22;8085;53.472;9.794;2022-11-20T02:04:52;0.60;99.90
15969;DHT22;8085;53.472;9.794;2022-11-20T02:07:21;0.60;99.90
15969;DHT22;8085;53.472;9.794;2022-11-20T02:09:49;0.60;99.90
15969;DHT22;8085;53.472;9.794;2022-11-20T02:12:16;0.60;99.90
15969;DHT22;8085;53.472;9.794;2022-11-20T02:14:57;0.60;99.90
15969;DHT22;8085;53.472;9.794;2022-11-20T02:17:25;0.60;99.90
15969;DHT22;8085;53.472;9.794;2022-11-20T02:19:53;0.60;99.90
15969;DHT22;8085;53.472;9.794;2022-11-20T02:22:24;0.60;99.90
15969;DHT22;8085;53.472;9.794;2022-11-20T02:24:54;0.60;99.90
15969;DHT22;8085;53.472;9.794;2022-11-20T02:27:23;0.70;99.90
15969;DHT22;8085;53.472;9.794;2022-11-20T02:29:53;0.70;99.90
15969;DHT22;8085;53.472;9.794;2022-11-20T02:32:21;0.70;99.90
15969;DHT22;8085;53.472;9.794;2022-11-20T02:34:48;0.70;99.90
15969;DHT22;8085;53.472;9.794;2022-11-20T02:37:15;0.70;99.90
15969;DHT22;8085;53.472;9.794;2022-11-20T02:39:44;0.60;99.90
15969;DHT22;8085;53.472;9.794;2022-11-20T02:42:13;0.60;99.90
15969;DHT22;8085;53.472;9.794;2022-11-20T02:44:40;0.60;99.90
15969;DHT22;8085;53.472;9.794;2022-11-20T02:47:07;0.60;99.90
15969;DHT22;8085;53.472;9.794;2022-11-20T02:49:34;0.60;99.90
15969;DHT22;8085;53.472;9.794;2022-11-20T02:52:01;0.60;99.90
15969;DHT22;8085;53.472;9.794;2022-11-20T02:54:28;0.60;99.90
15969;DHT22;8085;53.472;9.794;2022-11-20T02:56:54;0.60;99.90
15969;DHT22;8085;53.472;9.794;2022-11-20T02:59:23;0.60;99.90
15969;DHT22;8085;53.472;9.794;2022-11-20T03:01:49;0.60;99.90
15969;DHT22;8085;53.472;9.794;2022-11-20T03:04:16;0.60;99.90
15969;DHT22;8085;53.472;9.794;2022-11-20T03:06:43;0.60;99.90
15969;DHT22;8085;53.472;9.794;2022-11-20T03:09:11;0.60;99.90
15969;DHT22;8085;53.472;9.794;2022-11-20T03:11:39;0.60;99.90
15969;DHT22;8085;53.472;9.794;2022-11-20T03:14:05;0.60;99.90
15969;DHT22;8085;53.472;9.794;2022-11-20T03:16:34;0.60;99.90
15969;DHT22;8085;53.472;9.794;2022-11-20T03:19:01;0.60;99.90
15969;DHT22;8085;53.472;9.794;2022-11-20T03:21:28;0.60;99.90
15969;DHT22;8085;53.472;9.794;2022-11-20T03:23:54;0.60;99.90
15969;DHT22;8085;53.472;9.794;2022-11-20T03:26:23;0.60;99.90
15969;DHT22;8085;53.472;9.794;2022-11-20T03:28:51;0.60;99.90
15969;DHT22;8085;53.472;9.794;2022-11-20T03:31:20;0.70;99.90
15969;DHT22;8085;53.472;9.794;2022-11-20T03:33:49;0.60;99.90
15969;DHT22;8085;53.472;9.794;2022-11-20T03:36:17;0.70;99.90
15969;DHT22;8085;53.472;9.794;2022-11-20T03:38:45;0.60;99.90
15969;DHT22;8085;53.472;9.794;2022-11-20T03:41:13;0.60;99.90
15969;DHT22;8085;53.472;9.794;2022-11-20T03:43:40;0.60;99.90
15969;DHT22;8085;53.472;9.794;2022-11-20T03:46:07;0.60;99.90
15969;DHT22;8085;53.472;9.794;2022-11-20T03:48:35;0.60;99.90
15969;DHT22;8085;53.472;9.794;2022-11-20T03:51:11;0.60;99.90
15969;DHT22;8085;53.472;9.794;2022-11-20T03:53:39;0.60;99.90
15969;DHT22;8085;53.472;9.794;2022-11-20T03:56:07;0.60;99.90
15969;DHT22;8085;53.472;9.794;2022-11-20T03:58:34;0.60;99.90
15969;DHT22;8085;53.472;9.794;2022-11-20T04:01:06;0.60;99.90
15969;DHT22;8085;53.472;9.794;2022-11-20T04:03:33;0.60;99.90
15969;DHT22;8085;53.472;9.794;2022-11-20T04:06:02;0.60;99.90
15969;DHT22;8085;53.472;9.794;2022-11-20T04:08:32;0.60;99.90
15969;DHT22;8085;53.472;9.794;2022-11-20T04:11:12;0.60;99.90
15969;DHT22;8085;53.472;9.794;2022-11-20T04:13:39;0.60;99.90
15969;DHT22;8085;53.472;9.794;2022-11-20T04:16:07;0.60;99.90
15969;DHT22;8085;53.472;9.794;2022-11-20T04:18:35;0.60;99.90
15969;DHT22;8085;53.472;9.794;2022-11-20T04:21:03;0.60;99.90
15969;DHT22;8085;53.472;9.794;2022-11-20T04:23:31;0.60;99.90
15969;DHT22;8085;53.472;9.794;2022-11-20T04:26:01;0.60;99.90
15969;DHT22;8085;53.472;9.794;2022-11-20T04:28:28;0.50;99.90
15969;DHT22;8085;53.472;9.794;2022-11-20T04:31:02;0.50;99.90
15969;DHT22;8085;53.472;9.794;2022-11-20T04:33:29;0.50;99.90
15969;DHT22;8085;53.472;9.794;2022-11-20T04:36:00;0.50;99.90
15969;DHT22;8085;53.472;9.794;2022-11-20T04:38:28;0.50;99.90
15969;DHT22;8085;53.472;9.794;2022-11-20T04:41:01;0.50;99.90
15969;DHT22;8085;53.472;9.794;2022-11-20T04:43:28;0.50;99.90
15969;DHT22;8085;53.472;9.794;2022-11-20T04:45:56;0.50;99.90
15969;DHT22;8085;53.472;9.794;2022-11-20T04:48:25;0.50;99.90
15969;DHT22;8085;53.472;9.794;2022-11-20T04:50:52;0.50;99.90
15969;DHT22;8085;53.472;9.794;2022-11-20T04:53:20;0.50;99.90
15969;DHT22;8085;53.472;9.794;2022-11-20T04:55:47;0.50;99.90
15969;DHT22;8085;53.472;9.794;2022-11-20T04:58:16;0.50;99.90
15969;DHT22;8085;53.472;9.794;2022-11-20T05:00:42;0.50;99.90
15969;DHT22;8085;53.472;9.794;2022-11-20T05:03:09;0.50;99.90
15969;DHT22;8085;53.472;9.794;2022-11-20T05:05:36;0.50;99.90
15969;DHT22;8085;53.472;9.794;2022-11-20T05:08:03;0.50;99.90
15969;DHT22;8085;53.472;9.794;2022-11-20T05:10:30;0.50;99.90
15969;DHT22;8085;53.472;9.794;2022-11-20T05:12:57;0.50;99.90
15969;DHT22;8085;53.472;9.794;2022-11-20T05:15:25;0.50;99.90
15969;DHT22;8085;53.472;9.794;2022-11-20T05:17:52;0.50;99.90
15969;DHT22;8085;53.472;9.794;2022-11-20T05:20:19;0.50;99.90
15969;DHT22;8085;53.472;9.794;2022-11-20T05:22:46;0.50;99.90
15969;DHT22;8085;53.472;9.794;2022-11-20T05:25:13;0.50;99.90
15969;DHT22;8085;53.472;9.794;2022-11-20T05:27:40;0.40;99.90
15969;DHT22;8085;53.472;9.794;2022-11-20T05:30:08;0.40;99.90
15969;DHT22;8085;53.472;9.794;2022-11-20T05:32:36;0.40;99.90
15969;DHT22;8085;53.472;9.794;2022-11-20T05:35:04;0.40;99.90
15969;DHT22;8085;53.472;9.794;2022-11-20T05:37:30;0.40;99.90
15969;DHT22;8085;53.472;9.794;2022-11-20T05:39:57;0.40;99.90
15969;DHT22;8085;53.472;9.794;2022-11-20T05:42:24;0.40;99.90
15969;DHT22;8085;53.472;9.794;2022-11-20T05:44:57;0.40;99.90
15969;DHT22;8085;53.472;9.794;2022-11-20T05:47:24;0.40;99.90
15969;DHT22;8085;53.472;9.794;2022-11-20T05:49:52;0.40;99.90
15969;DHT22;8085;53.472;9.794;2022-11-20T05:52:19;0.40;99.90
15969;DHT22;8085;53.472;9.794;2022-11-20T05:54:46;0.40;99.90
15969;DHT22;8085;53.472;9.794;2022-11-20T05:57:13;0.40;99.90
15969;DHT22;8085;53.472;9.794;2022-11-20T05:59:40;0.40;99.90
15969;DHT22;8085;53.472;9.794;2022-11-20T06:02:07;0.40;99.90
15969;DHT22;8085;53.472;9.794;2022-11-20T06:04:33;0.40;99.90
15969;DHT22;8085;53.472;9.794;2022-11-20T06:07:02;0.40;99.90
15969;DHT22;8085;53.472;9.794;2022-11-20T06:09:29;0.40;99.90
15969;DHT22;8085;53.472;9.794;2022-11-20T06:11:55;0.40;99.90
15969;DHT22;8085;53.472;9.794;2022-11-20T06:14:22;0.40;99.90
15969;DHT22;8085;53.472;9.794;2022-11-20T06:16:49;0.40;99.90
15969;DHT22;8085;53.472;9.794;2022-11-20T06:19:16;0.40;99.90
15969;DHT22;8085;53.472;9.794;2022-11-20T06:21:43;0.40;99.90
15969;DHT22;8085;53.472;9.794;2022-11-20T06:24:11;0.40;99.90
15969;DHT22;8085;53.472;9.794;2022-11-20T06:26:38;0.40;99.90
15969;DHT22;8085;53.472;9.794;2022-11-20T06:29:05;0.40;99.90
15969;DHT22;8085;53.472;9.794;2022-11-20T06:31:32;0.40;99.90
15969;DHT22;8085;53.472;9.794;2022-11-20T06:34:00;0.40;99.90
15969;DHT22;8085;53.472;9.794;2022-11-20T06:36:27;0.40;99.90
15969;DHT22;8085;53.472;9.794;2022-11-20T06:38:54;0.40;99.90
15969;DHT22;8085;53.472;9.794;2022-11-20T06:41:22;0.40;99.90
15969;DHT22;8085;53.472;9.794;2022-11-20T06:43:49;0.40;99.90
15969;DHT22;8085;53.472;9.794;2022-11-20T06:46:18;0.40;99.90
15969;DHT22;8085;53.472;9.794;2022-11-20T06:48:45;0.40;99.90
15969;DHT22;8085;53.472;9.794;2022-11-20T06:51:13;0.40;99.90
15969;DHT22;8085;53.472;9.794;2022-11-20T06:53:40;0.40;99.90
15969;DHT22;8085;53.472;9.794;2022-11-20T06:56:07;0.40;99.90
15969;DHT22;8085;53.472;9.794;2022-11-20T06:58:36;0.40;99.90
15969;DHT22;8085;53.472;9.794;2022-11-20T07:01:04;0.40;99.90
15969;DHT22;8085;53.472;9.794;2022-11-20T07:03:31;0.40;99.90
15969;DHT22;8085;53.472;9.794;2022-11-20T07:06:00;0.40;99.90
15969;DHT22;8085;53.472;9.794;2022-11-20T07:08:27;0.40;99.90
15969;DHT22;8085;53.472;9.794;2022-11-20T07:10:57;0.40;99.90
15969;DHT22;8085;53.472;9.794;2022-11-20T07:13:25;0.40;99.90
15969;DHT22;8085;53.472;9.794;2022-11-20T07:15:53;0.30;99.90
15969;DHT22;8085;53.472;9.794;2022-11-20T07:18:20;0.40;99.90
15969;DHT22;8085;53.472;9.794;2022-11-20T07:20:46;0.40;99.90
15969;DHT22;8085;53.472;9.794;2022-11-20T07:23:13;0.40;99.90
15969;DHT22;8085;53.472;9.794;2022-11-20T07:25:40;0.40;99.90
15969;DHT22;8085;53.472;9.794;2022-11-20T07:28:07;0.40;99.90
15969;DHT22;8085;53.472;9.794;2022-11-20T07:30:36;0.30;99.90
15969;DHT22;8085;53.472;9.794;2022-11-20T07:33:04;0.30;99.90
15969;DHT22;8085;53.472;9.794;2022-11-20T07:35:31;0.30;99.90
15969;DHT22;8085;53.472;9.794;2022-11-20T07:37:58;0.30;99.90
15969;DHT22;8085;53.472;9.794;2022-11-20T07:40:25;0.30;99.90
15969;DHT22;8085;53.472;9.794;2022-11-20T07:42:52;0.30;99.90
15969;DHT22;8085;53.472;9.794;2022-11-20T07:45:21;0.30;99.90
15969;DHT22;8085;53.472;9.794;2022-11-20T07:47:49;0.30;99.90
15969;DHT22;8085;53.472;9.794;2022-11-20T07:50:17;0.30;99.90
15969;DHT22;8085;53.472;9.794;2022-11-20T07:52:44;0.30;99.90
15969;DHT22;8085;53.472;9.794;2022-11-20T07:55:11;0.30;99.90
15969;DHT22;8085;53.472;9.794;2022-11-20T07:57:38;0.30;99.90
15969;DHT22;8085;53.472;9.794;2022-11-20T08:00:07;0.30;99.90
15969;DHT22;8085;53.472;9.794;2022-11-20T08:02:37;0.30;99.90
15969;DHT22;8085;53.472;9.794;2022-11-20T08:05:05;0.30;99.90
15969;DHT22;8085;53.472;9.794;2022-11-20T08:07:36;0.30;99.90
15969;DHT22;8085;53.472;9.794;2022-11-20T08:10:04;0.30;99.90
15969;DHT22;8085;53.472;9.794;2022-11-20T08:12:31;0.40;99.90
15969;DHT22;8085;53.472;9.794;2022-11-20T08:15:16;0.40;99.90
15969;DHT22;8085;53.472;9.794;2022-11-20T08:17:42;0.40;99.90
15969;DHT22;8085;53.472;9.794;2022-11-20T08:20:10;0.50;99.90
15969;DHT22;8085;53.472;9.794;2022-11-20T08:22:38;0.50;99.90
15969;DHT22;8085;53.472;9.794;2022-11-20T08:25:05;0.50;99.90
15969;DHT22;8085;53.472;9.794;2022-11-20T08:27:32;0.60;99.90
15969;DHT22;8085;53.472;9.794;2022-11-20T08:29:59;0.60;99.90
15969;DHT22;8085;53.472;9.794;2022-11-20T08:32:26;0.60;99.90
15969;DHT22;8085;53.472;9.794;2022-11-20T08:34:53;0.60;99.90
15969;DHT22;8085;53.472;9.794;2022-11-20T08:37:20;0.60;99.90
15969;DHT22;8085;53.472;9.794;2022-11-20T08:39:48;0.60;99.90
15969;DHT22;8085;53.472;9.794;2022-11-20T08:42:15;0.60;99.90
15969;DHT22;8085;53.472;9.794;2022-11-20T08:44:42;0.60;99.90
15969;DHT22;8085;53.472;9.794;2022-11-20T08:47:09;0.60;99.90
15969;DHT22;8085;53.472;9.794;2022-11-20T08:49:35;0.60;99.90
15969;DHT22;8085;53.472;9.794;2022-11-20T08:52:02;0.60;99.90
15969;DHT22;8085;53.472;9.794;2022-11-20T08:54:29;0.70;99.90
15969;DHT22;8085;53.472;9.794;2022-11-20T08:56:57;0.80;99.90
15969;DHT22;8085;53.472;9.794;2022-11-20T08:59:24;0.80;99.90
15969;DHT22;8085;53.472;9.794;2022-11-20T09:01:51;0.90;99.90
15969;DHT22;8085;53.472;9.794;2022-11-20T09:04:18;0.90;99.90
15969;DHT22;8085;53.472;9.794;2022-11-20T09:06:45;1.00;99.90
15969;DHT22;8085;53.472;9.794;2022-11-20T09:09:11;1.10;99.90
15969;DHT22;8085;53.472;9.794;2022-11-20T09:11:38;1.20;99.90
15969;DHT22;8085;53.472;9.794;2022-11-20T09:14:06;1.30;99.90
15969;DHT22;8085;53.472;9.794;2022-11-20T09:16:33;1.40;99.90
15969;DHT22;8085;53.472;9.794;2022-11-20T09:19:00;1.50;99.90
15969;DHT22;8085;53.472;9.794;2022-11-20T09:21:27;1.50;99.90
15969;DHT22;8085;53.472;9.794;2022-11-20T09:23:54;1.50;99.90
15969;DHT22;8085;53.472;9.794;2022-11-20T09:26:21;1.60;99.90
15969;DHT22;8085;53.472;9.794;2022-11-20T09:28:48;1.70;99.90
15969;DHT22;8085;53.472;9.794;2022-11-20T09:31:21;1.60;99.90
15969;DHT22;8085;53.472;9.794;2022-11-20T09:33:48;1.70;99.90
15969;DHT22;8085;53.472;9.794;2022-11-20T09:36:15;1.70;99.90
15969;DHT22;8085;53.472;9.794;2022-11-20T09:38:43;1.80;99.90
15969;DHT22;8085;53.472;9.794;2022-11-20T09:41:35;1.70;99.90
15969;DHT22;8085;53.472;9.794;2022-11-20T09:44:10;1.70;99.90
15969;DHT22;8085;53.472;9.794;2022-11-20T09:46:49;1.60;99.90
15969;DHT22;8085;53.472;9.794;2022-11-20T09:49:25;1.70;99.90
15969;DHT22;8085;53.472;9.794;2022-11-20T09:51:57;1.60;99.90
15969;DHT22;8085;53.472;9.794;2022-11-20T09:54:29;1.50;99.90
15969;DHT22;8085;53.472;9.794;2022-11-20T09:57:00;1.60;99.90
15969;DHT22;8085;53.472;9.794;2022-11-20T09:59:34;1.70;99.90
15969;DHT22;8085;53.472;9.794;2022-11-20T10:02:15;1.70;99.90
15969;DHT22;8085;53.472;9.794;2022-11-20T10:04:46;1.70;99.90
15969;DHT22;8085;53.472;9.794;2022-11-20T10:07:17;1.70;99.90
15969;DHT22;8085;53.472;9.794;2022-11-20T10:09:51;1.70;99.90
15969;DHT22;8085;53.472;9.794;2022-11-20T10:12:27;1.80;99.90
15969;DHT22;8085;53.472;9.794;2022-11-20T10:15:10;1.80;99.90
15969;DHT22;8085;53.472;9.794;2022-11-20T10:17:53;1.90;99.90
15969;DHT22;8085;53.472;9.794;2022-11-20T10:20:30;2.00;99.90
15969;DHT22;8085;53.472;9.794;2022-11-20T10:23:18;2.10;99.90
15969;DHT22;8085;53.472;9.794;2022-11-20T10:25:51;2.10;99.90
15969;DHT22;8085;53.472;9.794;2022-11-20T10:28:30;2.30;99.90
15969;DHT22;8085;53.472;9.794;2022-11-20T10:31:03;2.30;99.90
15969;DHT22;8085;53.472;9.794;2022-11-20T10:33:35;2.30;99.90
15969;DHT22;8085;53.472;9.794;2022-11-20T10:36:10;2.40;99.90
15969;DHT22;8085;53.472;9.794;2022-11-20T10:38:43;2.30;99.90
15969;DHT22;8085;53.472;9.794;2022-11-20T10:41:16;2.30;99.90
15969;DHT22;8085;53.472;9.794;2022-11-20T10:44:00;2.30;99.90
15969;DHT22;8085;53.472;9.794;2022-11-20T10:46:35;2.30;99.90
15969;DHT22;8085;53.472;9.794;2022-11-20T10:49:12;2.30;99.90
15969;DHT22;8085;53.472;9.794;2022-11-20T10:51:48;2.40;99.90
15969;DHT22;8085;53.472;9.794;2022-11-20T10:54:24;2.40;99.90
15969;DHT22;8085;53.472;9.794;2022-11-20T10:56:58;2.30;99.90
15969;DHT22;8085;53.472;9.794;2022-11-20T10:59:35;2.40;99.90
15969;DHT22;8085;53.472;9.794;2022-11-20T11:02:15;2.40;99.90
15969;DHT22;8085;53.472;9.794;2022-11-20T11:04:46;2.30;99.90
15969;DHT22;8085;53.472;9.794;2022-11-20T11:07:15;2.40;99.90
15969;DHT22;8085;53.472;9.794;2022-11-20T11:09:44;2.40;99.90
15969;DHT22;8085;53.472;9.794;2022-11-20T11:12:13;2.50;99.90
15969;DHT22;8085;53.472;9.794;2022-11-20T11:14:44;2.60;99.90
15969;DHT22;8085;53.472;9.794;2022-11-20T11:17:24;2.80;99.90
15969;DHT22;8085;53.472;9.794;2022-11-20T11:20:02;3.20;97.50
15969;DHT22;8085;53.472;9.794;2022-11-20T11:22:30;3.40;97.80
15969;DHT22;8085;53.472;9.794;2022-11-20T11:24:57;3.40;99.30
15969;DHT22;8085;53.472;9.794;2022-11-20T11:27:24;3.40;99.90
15969;DHT22;8085;53.472;9.794;2022-11-20T11:30:02;3.20;99.90
15969;DHT22;8085;53.472;9.794;2022-11-20T11:32:30;2.80;99.10
15969;DHT22;8085;53.472;9.794;2022-11-20T11:35:02;2.70;99.90
15969;DHT22;8085;53.472;9.794;2022-11-20T11:37:33;2.60;99.90
15969;DHT22;8085;53.472;9.794;2022-11-20T11:40:01;2.60;99.90
15969;DHT22;8085;53.472;9.794;2022-11-20T11:42:28;3.00;99.90
15969;DHT22;8085;53.472;9.794;2022-11-20T11:44:58;3.30;91.30
15969;DHT22;8085;53.472;9.794;2022-11-20T11:47:36;3.30;93.30
15969;DHT22;8085;53.472;9.794;2022-11-20T11:50:16;3.60;76.80
15969;DHT22;8085;53.472;9.794;2022-11-20T11:52:47;4.00;53.00
15969;DHT22;8085;53.472;9.794;2022-11-20T11:55:24;3.90;50.70
15969;DHT22;8085;53.472;9.794;2022-11-20T11:57:55;3.50;43.80
15969;DHT22;8085;53.472;9.794;2022-11-20T12:00:24;3.30;58.80
15969;DHT22;8085;53.472;9.794;2022-11-20T12:03:00;3.10;63.60
15969;DHT22;8085;53.472;9.794;2022-11-20T12:05:38;3.20;25.90
15969;DHT22;8085;53.472;9.794;2022-11-20T12:08:14;3.20;15.20
15969;DHT22;8085;53.472;9.794;2022-11-20T12:10:45;3.10;16.30
15969;DHT22;8085;53.472;9.794;2022-11-20T12:13:26;3.10;7.40
15969;DHT22;8085;53.472;9.794;2022-11-20T12:15:54;3.10;9.10
15969;DHT22;8085;53.472;9.794;2022-11-20T12:18:22;3.10;1.50
15969;DHT22;8085;53.472;9.794;2022-11-20T12:21:03;3.10;1.00
15969;DHT22;8085;53.472;9.794;2022-11-20T12:23:36;3.10;1.00
15969;DHT22;8085;53.472;9.794;2022-11-20T12:26:16;3.10;12.60
15969;DHT22;8085;53.472;9.794;2022-11-20T12:28:51;3.00;36.10
15969;DHT22;8085;53.472;9.794;2022-11-20T12:31:41;2.90;52.00
15969;DHT22;8085;53.472;9.794;2022-11-20T12:34:19;2.70;66.70
15969;DHT22;8085;53.472;9.794;2022-11-20T12:36:55;2.60;83.10
15969;DHT22;8085;53.472;9.794;2022-11-20T12:39:34;2.50;93.60
15969;DHT22;8085;53.472;9.794;2022-11-20T12:42:13;2.50;98.10
15969;DHT22;8085;53.472;9.794;2022-11-20T12:45:20;2.20;99.90
15969;DHT22;8085;53.472;9.794;2022-11-20T12:48:14;2.10;99.90
15969;DHT22;8085;53.472;9.794;2022-11-20T12:50:51;2.20;99.90
15969;DHT22;8085;53.472;9.794;2022-11-20T12:53:29;2.20;99.90
15969;DHT22;8085;53.472;9.794;2022-11-20T12:56:04;2.30;99.90
15969;DHT22;8085;53.472;9.794;2022-11-20T12:58:39;2.30;99.90
15969;DHT22;8085;53.472;9.794;2022-11-20T13:01:16;2.30;99.90
15969;DHT22;8085;53.472;9.794;2022-11-20T13:04:14;2.20;99.90
15969;DHT22;8085;53.472;9.794;2022-11-20T13:06:44;2.10;99.90
15969;DHT22;8085;53.472;9.794;2022-11-20T13:09:14;2.10;99.90
15969;DHT22;8085;53.472;9.794;2022-11-20T13:11:46;2.10;99.90
15969;DHT22;8085;53.472;9.794;2022-11-20T13:14:24;2.10;99.90
15969;DHT22;8085;53.472;9.794;2022-11-20T13:16:58;2.10;99.30
15969;DHT22;8085;53.472;9.794;2022-11-20T13:19:26;2.20;99.90
15969;DHT22;8085;53.472;9.794;2022-11-20T13:21:54;2.20;96.40
15969;DHT22;8085;53.472;9.794;2022-11-20T13:24:24;2.10;96.10
15969;DHT22;8085;53.472;9.794;2022-11-20T13:27:04;2.10;94.70
15969;DHT22;8085;53.472;9.794;2022-11-20T13:29:31;2.10;94.70
15969;DHT22;8085;53.472;9.794;2022-11-20T13:32:06;2.10;96.00
15969;DHT22;8085;53.472;9.794;2022-11-20T13:34:34;2.10;93.10
15969;DHT22;8085;53.472;9.794;2022-11-20T13:37:01;2.10;95.10
15969;DHT22;8085;53.472;9.794;2022-11-20T13:39:32;2.10;92.80
15969;DHT22;8085;53.472;9.794;2022-11-20T13:42:00;2.10;92.60
15969;DHT22;8085;53.472;9.794;2022-11-20T13:44:33;2.10;93.40
15969;DHT22;8085;53.472;9.794;2022-11-20T13:47:01;2.10;90.10
15969;DHT22;8085;53.472;9.794;2022-11-20T13:49:32;2.10;85.70
15969;DHT22;8085;53.472;9.794;2022-11-20T13:52:26;2.00;89.00
15969;DHT22;8085;53.472;9.794;2022-11-20T13:55:05;2.00;94.20
15969;DHT22;8085;53.472;9.794;2022-11-20T13:57:55;1.90;99.60
15969;DHT22;8085;53.472;9.794;2022-11-20T14:00:24;1.80;99.90
15969;DHT22;8085;53.472;9.794;2022-11-20T14:03:01;1.80;99.90
15969;DHT22;8085;53.472;9.794;2022-11-20T14:05:32;1.80;99.90
15969;DHT22;8085;53.472;9.794;2022-11-20T14:08:03;1.80;99.90
15969;DHT22;8085;53.472;9.794;2022-11-20T14:10:31;1.70;99.90
15969;DHT22;8085;53.472;9.794;2022-11-20T14:13:09;1.70;99.90
15969;DHT22;8085;53.472;9.794;2022-11-20T14:15:36;1.70;99.90
15969;DHT22;8085;53.472;9.794;2022-11-20T14:18:13;1.70;99.90
15969;DHT22;8085;53.472;9.794;2022-11-20T14:20:40;1.50;99.90
15969;DHT22;8085;53.472;9.794;2022-11-20T14:23:10;1.50;99.90
15969;DHT22;8085;53.472;9.794;2022-11-20T14:25:42;1.40;99.90
15969;DHT22;8085;53.472;9.794;2022-11-20T14:28:11;1.40;99.90
15969;DHT22;8085;53.472;9.794;2022-11-20T14:30:47;1.40;99.90
15969;DHT22;8085;53.472;9.794;2022-11-20T14:33:15;1.30;99.90
15969;DHT22;8085;53.472;9.794;2022-11-20T14:35:45;1.30;99.90
15969;DHT22;8085;53.472;9.794;2022-11-20T14:38:14;1.30;99.90
15969;DHT22;8085;53.472;9.794;2022-11-20T14:40:43;1.30;99.90
15969;DHT22;8085;53.472;9.794;2022-11-20T14:43:22;1.40;99.90
15969;DHT22;8085;53.472;9.794;2022-11-20T14:45:55;1.40;99.90
15969;DHT22;8085;53.472;9.794;2022-11-20T14:48:28;1.40;99.90
15969;DHT22;8085;53.472;9.794;2022-11-20T14:50:56;1.50;99.90
15969;DHT22;8085;53.472;9.794;2022-11-20T14:53:23;1.50;99.90
15969;DHT22;8085;53.472;9.794;2022-11-20T14:55:57;1.50;99.90
15969;DHT22;8085;53.472;9.794;2022-11-20T14:58:25;1.50;99.90
15969;DHT22;8085;53.472;9.794;2022-11-20T15:00:57;1.50;99.90
15969;DHT22;8085;53.472;9.794;2022-11-20T15:03:31;1.40;99.90
15969;DHT22;8085;53.472;9.794;2022-11-20T15:05:59;1.50;99.90
15969;DHT22;8085;53.472;9.794;2022-11-20T15:08:26;1.40;99.90
15969;DHT22;8085;53.472;9.794;2022-11-20T15:10:54;1.50;99.90
15969;DHT22;8085;53.472;9.794;2022-11-20T15:13:30;1.50;99.90
15969;DHT22;8085;53.472;9.794;2022-11-20T15:15:59;1.40;99.90
15969;DHT22;8085;53.472;9.794;2022-11-20T15:18:28;1.40;99.90
15969;DHT22;8085;53.472;9.794;2022-11-20T15:20:58;1.40;99.90
15969;DHT22;8085;53.472;9.794;2022-11-20T15:23:27;1.40;99.90
15969;DHT22;8085;53.472;9.794;2022-11-20T15:25:56;1.40;99.90
15969;DHT22;8085;53.472;9.794;2022-11-20T15:28:29;1.40;99.90
15969;DHT22;8085;53.472;9.794;2022-11-20T15:30:56;1.50;99.90
15969;DHT22;8085;53.472;9.794;2022-11-20T15:33:23;1.50;99.90
15969;DHT22;8085;53.472;9.794;2022-11-20T15:35:50;1.40;99.90
15969;DHT22;8085;53.472;9.794;2022-11-20T15:38:17;1.50;99.90
15969;DHT22;8085;53.472;9.794;2022-11-20T15:40:44;1.50;99.90
15969;DHT22;8085;53.472;9.794;2022-11-20T15:43:12;1.40;99.90
15969;DHT22;8085;53.472;9.794;2022-11-20T15:45:42;1.50;99.90
15969;DHT22;8085;53.472;9.794;2022-11-20T15:48:12;1.40;99.90
15969;DHT22;8085;53.472;9.794;2022-11-20T15:50:46;1.40;99.90
15969;DHT22;8085;53.472;9.794;2022-11-20T15:53:16;1.40;99.90
15969;DHT22;8085;53.472;9.794;2022-11-20T15:55:43;1.40;99.90
15969;DHT22;8085;53.472;9.794;2022-11-20T15:58:10;1.40;99.90
15969;DHT22;8085;53.472;9.794;2022-11-20T16:00:38;1.40;99.90
15969;DHT22;8085;53.472;9.794;2022-11-20T16:03:07;1.30;99.90
15969;DHT22;8085;53.472;9.794;2022-11-20T16:05:35;1.20;99.90
15969;DHT22;8085;53.472;9.794;2022-11-20T16:08:02;1.20;99.90
15969;DHT22;8085;53.472;9.794;2022-11-20T16:10:29;1.10;99.90
15969;DHT22;8085;53.472;9.794;2022-11-20T16:12:56;1.10;99.90
15969;DHT22;8085;53.472;9.794;2022-11-20T16:15:43;1.00;99.90
15969;DHT22;8085;53.472;9.794;2022-11-20T16:18:16;1.00;99.90
15969;DHT22;8085;53.472;9.794;2022-11-20T16:20:44;1.00;99.90